Time;durP1;ratioP1;P1;durP2;ratioP2;P2;SDS_P1;SDS_P2;PMS_P1;PMS_P2;Temp;Humidity;BMP_temperature;BMP_pressure;BME280_temperature;BME280_humidity;BME280_pressure;Samples;Min_cycle;Max_cycle;Signal;HPM_P1;HPM_P2
2024/03/17 00:04:29;;;;;;;2.17;0.98;;;;;;;9.73;56.50;101149.63;10377792;28;20140;-58
2024/03/17 00:09:29;;;;;;;2.20;0.82;;;;;;;9.43;57.15;101150.78;10376438;28;20081;-58
2024/03/17 00:14:30;;;;;;;4.25;0.80;;;;;;;9.32;57.35;101149.13;10371503;28;20076;-58
2024/03/17 00:19:30;;;;;;;2.33;0.75;;;;;;;9.25;57.65;101148.88;10377621;28;20053;-59
2024/03/17 00:24:34;;;;;;;1.83;0.70;;;;;;;9.18;57.15;101157.66;10379789;28;20128;-58
2024/03/17 00:29:35;;;;;;;2.78;1.23;;;;;;;9.03;57.47;101157.31;10362312;28;20122;-57
2024/03/17 00:34:35;;;;;;;3.28;1.35;;;;;;;8.94;57.34;101153.66;10378688;28;20115;-58
2024/03/17 00:39:36;;;;;;;4.10;1.20;;;;;;;8.85;57.70;101150.03;10373917;28;20720;-58
2024/03/17 00:44:36;;;;;;;2.95;1.10;;;;;;;8.71;58.22;101145.97;10376870;28;20520;-58
2024/03/17 00:49:37;;;;;;;4.72;1.00;;;;;;;8.64;58.35;101141.31;10375344;28;20048;-59
2024/03/17 00:54:37;;;;;;;3.78;1.30;;;;;;;8.58;58.46;101144.56;10374508;28;20056;-59
2024/03/17 00:59:38;;;;;;;2.65;1.42;;;;;;;8.47;58.52;101127.66;10375983;28;20057;-58
2024/03/17 01:04:43;;;;;;;4.80;1.13;;;;;;;8.39;58.80;101130.16;10378604;28;20055;-58
2024/03/17 01:09:43;;;;;;;2.15;1.10;;;;;;;8.30;59.01;101125.69;10375296;28;20069;-58
2024/03/17 01:14:44;;;;;;;4.13;1.48;;;;;;;8.18;59.57;101122.28;10376252;28;20060;-59
2024/03/17 01:19:44;;;;;;;4.05;1.88;;;;;;;8.10;60.04;101122.16;10380359;28;20165;-59
2024/03/17 01:24:46;;;;;;;3.20;1.50;;;;;;;8.02;60.15;101112.16;10378128;28;20058;-57
2024/03/17 01:29:46;;;;;;;10.10;1.35;;;;;;;7.90;60.35;101108.75;10355653;28;20084;-59
2024/03/17 01:34:47;;;;;;;3.65;1.35;;;;;;;7.86;60.45;101095.78;10373502;28;20153;-60
2024/03/17 01:39:49;;;;;;;4.28;1.60;;;;;;;7.78;60.51;101093.81;10384624;28;20050;-59
2024/03/17 01:44:50;;;;;;;2.97;1.40;;;;;;;7.63;61.14;101093.38;10381805;28;20045;-58
2024/03/17 01:49:51;;;;;;;3.40;2.00;;;;;;;7.57;60.63;101088.56;10383812;28;20472;-59
2024/03/17 01:54:52;;;;;;;2.58;1.00;;;;;;;7.39;61.52;101096.44;10384665;28;20065;-58
2024/03/17 01:59:55;;;;;;;2.55;1.05;;;;;;;7.27;61.57;101084.16;10385926;28;20057;-57
2024/03/17 02:04:56;;;;;;;2.40;1.25;;;;;;;7.25;61.35;101084.28;10379108;28;20447;-58
2024/03/17 02:09:56;;;;;;;5.45;1.48;;;;;;;7.20;61.49;101078.47;10381371;28;20045;-57
2024/03/17 02:14:58;;;;;;;2.75;1.48;;;;;;;7.11;61.88;101079.31;10373968;28;20050;-58
2024/03/17 02:19:59;;;;;;;2.83;2.00;;;;;;;6.88;62.05;101079.50;10376997;28;20096;-59
2024/03/17 02:25:00;;;;;;;3.97;1.60;;;;;;;6.87;62.01;101080.50;10385321;28;20075;-58
2024/03/17 02:30:01;;;;;;;3.35;1.63;;;;;;;6.84;61.93;101087.91;10382376;28;20562;-59
2024/03/17 02:35:02;;;;;;;4.80;1.73;;;;;;;6.76;62.03;101075.22;10382412;28;20501;-58
2024/03/17 02:40:05;;;;;;;3.20;1.48;;;;;;;6.71;62.14;101080.09;10381709;28;20057;-58
2024/03/17 02:45:08;;;;;;;3.00;1.38;;;;;;;6.64;62.29;101074.47;10379969;28;20758;-58
2024/03/17 02:50:09;;;;;;;4.95;1.73;;;;;;;6.58;62.80;101066.16;10382717;28;20509;-58
2024/03/17 02:55:10;;;;;;;4.57;0.90;;;;;;;6.51;62.37;101063.13;10383217;28;20065;-58
2024/03/17 03:00:12;;;;;;;4.50;1.77;;;;;;;6.45;62.74;101066.34;10381941;28;20077;-58
2024/03/17 03:05:13;;;;;;;3.15;1.60;;;;;;;6.35;63.36;101063.59;10377350;28;20041;-58
2024/03/17 03:10:14;;;;;;;4.78;1.63;;;;;;;6.31;63.31;101062.16;10382240;28;20045;-58
2024/03/17 03:15:14;;;;;;;2.78;1.45;;;;;;;6.27;63.80;101064.25;10379370;28;20393;-58
2024/03/17 03:20:15;;;;;;;5.00;1.52;;;;;;;6.19;62.91;101065.91;10382425;28;20444;-58
2024/03/17 03:25:15;;;;;;;3.85;1.40;;;;;;;6.11;63.47;101070.03;10377506;28;20156;-57
2024/03/17 03:30:16;;;;;;;3.67;1.20;;;;;;;5.99;63.79;101071.09;10382637;28;20046;-58
2024/03/17 03:35:16;;;;;;;3.55;1.60;;;;;;;5.98;64.25;101073.88;10378923;28;20080;-58
2024/03/17 03:40:19;;;;;;;3.15;1.65;;;;;;;5.98;63.96;101082.72;10375298;28;20130;-60
2024/03/17 03:45:20;;;;;;;5.30;1.80;;;;;;;5.92;64.13;101096.53;10377210;28;20103;-60
2024/03/17 03:50:22;;;;;;;4.18;1.77;;;;;;;5.87;64.29;101082.75;10373930;28;20061;-60
2024/03/17 03:55:23;;;;;;;4.78;1.17;;;;;;;5.76;64.49;101087.13;10376024;28;20084;-59
2024/03/17 04:00:25;;;;;;;2.85;1.20;;;;;;;5.57;64.79;101089.63;10372358;28;20045;-60
2024/03/17 04:05:26;;;;;;;5.70;1.80;;;;;;;5.56;64.63;101095.94;10376028;28;20050;-60
2024/03/17 04:10:26;;;;;;;3.00;1.75;;;;;;;5.57;64.77;101090.47;10376739;28;20073;-60
2024/03/17 04:15:27;;;;;;;4.50;1.80;;;;;;;5.57;64.54;101095.81;10377080;28;20573;-60
2024/03/17 04:20:27;;;;;;;2.15;1.42;;;;;;;5.48;64.24;101091.22;10374105;28;20071;-60
2024/03/17 04:25:28;;;;;;;5.20;1.73;;;;;;;5.39;64.71;101097.31;10377770;28;20085;-60
2024/03/17 04:30:28;;;;;;;3.80;1.30;;;;;;;5.30;65.38;101106.88;10375090;28;20416;-60
2024/03/17 04:35:29;;;;;;;2.17;1.13;;;;;;;5.34;64.64;101102.16;10358263;28;20057;-60
2024/03/17 04:40:30;;;;;;;1.77;1.30;;;;;;;5.35;64.88;101107.38;10378280;28;20092;-60
2024/03/17 04:45:31;;;;;;;4.95;1.77;;;;;;;5.38;64.39;101103.59;10376908;28;20148;-60
2024/03/17 04:50:32;;;;;;;1.85;1.38;;;;;;;5.39;64.67;101104.44;10376611;28;20049;-59
2024/03/17 04:55:32;;;;;;;3.35;1.83;;;;;;;5.37;65.11;101104.56;10375989;28;20424;-60
2024/03/17 05:00:33;;;;;;;4.07;1.23;;;;;;;5.33;65.02;101101.31;10376019;28;20050;-60
2024/03/17 05:05:33;;;;;;;3.10;1.30;;;;;;;5.30;65.23;101114.03;10357419;28;20054;-60
2024/03/17 05:10:34;;;;;;;6.60;2.08;;;;;;;5.29;64.81;101112.34;10375055;28;20038;-60
2024/03/17 05:15:37;;;;;;;3.15;1.67;;;;;;;5.41;65.27;101107.84;10373001;28;20058;-60
2024/03/17 05:20:37;;;;;;;3.00;1.42;;;;;;;5.39;65.32;101109.78;10374034;28;20049;-60
2024/03/17 05:25:38;;;;;;;7.75;3.65;;;;;;;5.29;65.83;101107.88;10372757;28;20049;-60
2024/03/17 05:30:38;;;;;;;9.32;3.22;;;;;;;5.46;64.71;101103.00;10374167;28;20053;-60
2024/03/17 05:35:39;;;;;;;5.47;2.70;;;;;;;5.64;64.22;101101.47;10393711;28;20059;-59
2024/03/17 05:40:41;;;;;;;3.10;1.60;;;;;;;5.67;64.82;101097.75;10405107;28;20053;-59
2024/03/17 05:45:41;;;;;;;4.22;2.45;;;;;;;5.84;64.32;101101.66;10408300;28;20049;-60
2024/03/17 05:50:42;;;;;;;4.18;2.42;;;;;;;5.83;65.19;101102.66;10402069;28;20057;-60
2024/03/17 05:55:43;;;;;;;3.28;1.33;;;;;;;5.92;64.72;101112.56;10405347;28;20060;-59
2024/03/17 06:00:43;;;;;;;3.38;1.25;;;;;;;5.95;64.73;101109.66;10425660;28;20065;-62
2024/03/17 06:05:45;;;;;;;4.60;1.33;;;;;;;5.95;64.68;101105.19;10427857;28;20064;-61
2024/03/17 06:10:47;;;;;;;2.33;1.40;;;;;;;6.06;65.05;101111.44;10426351;28;20037;-61
2024/03/17 06:15:48;;;;;;;5.07;2.53;;;;;;;6.09;64.72;101106.69;10428723;28;20043;-61
2024/03/17 06:20:49;;;;;;;3.08;1.65;;;;;;;6.25;64.06;101103.59;10431831;28;20101;-61
2024/03/17 06:25:50;;;;;;;3.83;2.03;;;;;;;6.30;64.53;101098.72;10436034;28;20049;-61
2024/03/17 06:30:56;;;;;;;4.90;2.38;;;;;;;6.44;64.86;101102.03;10432114;28;20129;-61
2024/03/17 06:35:57;;;;;;;5.45;3.10;;;;;;;6.54;64.30;101098.44;10426300;28;20033;-60
2024/03/17 06:40:57;;;;;;;4.07;1.95;;;;;;;6.59;64.14;101098.03;10434170;28;20034;-62
2024/03/17 06:45:59;;;;;;;2.55;1.75;;;;;;;6.59;63.86;101095.38;10433672;28;20096;-61
2024/03/17 06:51:00;;;;;;;7.78;2.75;;;;;;;6.57;64.29;101091.16;10430175;28;20050;-61
2024/03/17 06:56:01;;;;;;;6.20;3.50;;;;;;;6.66;65.09;101082.34;10433744;28;20053;-61
2024/03/17 07:01:02;;;;;;;5.40;2.80;;;;;;;6.76;64.92;101088.59;10434699;28;20113;-62
2024/03/17 07:06:03;;;;;;;5.10;2.97;;;;;;;6.86;64.71;101075.28;10432725;28;20037;-61
2024/03/17 07:11:06;;;;;;;5.53;2.95;;;;;;;7.09;64.73;101084.78;10415824;28;20048;-59
2024/03/17 07:16:07;;;;;;;7.97;3.15;;;;;;;7.29;64.19;101069.66;10412822;28;20073;-59
2024/03/17 07:21:09;;;;;;;4.90;2.83;;;;;;;7.47;64.20;101069.84;10418184;28;20041;-60
2024/03/17 07:26:10;;;;;;;3.78;1.90;;;;;;;7.62;64.28;101069.41;10414425;28;20635;-60
2024/03/17 07:31:11;;;;;;;5.35;3.00;;;;;;;7.81;64.09;101071.28;10419539;28;20025;-60
2024/03/17 07:36:12;;;;;;;8.40;2.92;;;;;;;7.98;64.01;101065.22;10418069;28;20053;-61
2024/03/17 07:41:12;;;;;;;5.35;2.38;;;;;;;8.10;63.55;101064.09;10420266;28;20037;-61
2024/03/17 07:46:13;;;;;;;5.78;2.72;;;;;;;8.31;63.40;101065.75;10414552;28;20077;-58
2024/03/17 07:51:16;;;;;;;8.80;4.30;;;;;;;8.46;63.41;101061.66;10411081;28;20068;-58
2024/03/17 07:56:19;;;;;;;3.95;2.15;;;;;;;8.64;63.01;101060.91;10407138;28;20050;-59
2024/03/17 08:01:19;;;;;;;5.18;2.20;;;;;;;8.82;62.58;101061.81;10411620;28;20038;-59
2024/03/17 08:06:20;;;;;;;3.22;2.13;;;;;;;8.82;62.92;101045.75;10402526;28;20041;-58
2024/03/17 08:11:21;;;;;;;5.18;2.20;;;;;;;9.06;62.51;101047.91;10402164;28;20217;-58
2024/03/17 08:16:21;;;;;;;3.60;1.83;;;;;;;9.22;62.36;101041.91;10407979;28;20101;-58
2024/03/17 08:21:22;;;;;;;3.45;1.73;;;;;;;9.30;62.27;101043.81;10375678;28;20084;-61
2024/03/17 08:26:23;;;;;;;4.25;1.80;;;;;;;9.62;61.43;101042.50;10378142;28;20068;-61
2024/03/17 08:31:23;;;;;;;1.75;1.15;;;;;;;9.82;60.90;101051.22;10378903;28;20051;-62
2024/03/17 08:36:24;;;;;;;6.25;2.00;;;;;;;10.05;60.17;101056.97;10376306;28;20037;-61
2024/03/17 08:41:25;;;;;;;3.30;1.67;;;;;;;10.27;59.79;101048.41;10376318;28;20084;-61
2024/03/17 08:46:25;;;;;;;4.57;1.33;;;;;;;10.52;59.40;101049.47;10373559;28;20068;-61
2024/03/17 08:51:27;;;;;;;6.70;2.08;;;;;;;10.79;59.00;101039.53;10373724;28;20045;-61
2024/03/17 08:56:27;;;;;;;3.33;1.70;;;;;;;11.07;58.29;101032.06;10373273;28;20049;-62
2024/03/17 09:01:28;;;;;;;2.78;1.23;;;;;;;11.45;57.80;101024.47;10377872;28;20648;-62
2024/03/17 09:06:29;;;;;;;4.43;1.50;;;;;;;11.86;56.64;101016.41;10372853;28;20056;-61
2024/03/17 09:11:30;;;;;;;5.03;1.48;;;;;;;12.33;55.97;101014.06;10374528;28;20075;-64
2024/03/17 09:16:31;;;;;;;1.95;1.30;;;;;;;12.74;55.13;101013.94;10375073;28;20144;-64
2024/03/17 09:21:33;;;;;;;2.40;1.45;;;;;;;13.14;54.27;101014.81;10371685;28;20428;-62
2024/03/17 09:26:35;;;;;;;4.30;1.38;;;;;;;13.44;53.32;101021.25;10371354;28;20041;-61
2024/03/17 09:31:35;;;;;;;2.88;1.23;;;;;;;13.69;52.48;101011.13;10377506;28;20053;-62
2024/03/17 09:36:36;;;;;;;3.10;1.52;;;;;;;13.95;51.95;101016.16;10374681;28;20064;-61
2024/03/17 09:41:38;;;;;;;2.40;1.25;;;;;;;14.36;51.01;101007.69;10357748;28;20095;-61
2024/03/17 09:46:39;;;;;;;4.97;1.42;;;;;;;14.78;50.06;100999.97;10373923;28;20060;-62
2024/03/17 09:51:40;;;;;;;4.75;1.50;;;;;;;15.24;49.15;100989.75;10373105;28;20060;-62
2024/03/17 09:56:40;;;;;;;3.95;1.70;;;;;;;15.42;48.42;100992.00;10378635;28;20050;-63
2024/03/17 10:01:42;;;;;;;3.70;1.10;;;;;;;15.85;47.75;100985.78;10382071;28;20095;-63
2024/03/17 10:06:46;;;;;;;4.13;1.50;;;;;;;16.21;46.67;100966.69;10381715;28;20084;-63
2024/03/17 10:11:47;;;;;;;4.15;1.10;;;;;;;16.49;45.94;100963.09;10385916;28;20053;-63
2024/03/17 10:16:47;;;;;;;2.33;0.80;;;;;;;16.97;44.89;100955.00;10379068;28;20082;-63
2024/03/17 10:21:48;;;;;;;3.15;1.60;;;;;;;17.35;43.72;100967.22;10376490;28;20114;-63
2024/03/17 10:26:52;;;;;;;3.28;1.35;;;;;;;17.55;43.27;100970.81;10379904;28;20068;-63
2024/03/17 10:31:55;;;;;;;3.30;1.40;;;;;;;18.14;41.76;100968.34;10381512;28;20060;-63
2024/03/17 10:37:22;;;;;;;2.03;1.13;;;;;;;19.18;39.60;100956.53;10378717;28;20115;-63
2024/03/17 10:42:28;;;;;;;2.65;1.50;;;;;;;18.99;40.00;100952.03;10427535;28;20042;-62
2024/03/17 10:47:28;;;;;;;4.45;1.60;;;;;;;19.12;39.57;100951.13;10430560;28;20049;-64
2024/03/17 10:52:33;;;;;;;2.00;1.67;;;;;;;20.33;37.27;100946.44;10432991;28;20069;-62
2024/03/17 10:57:34;;;;;;;3.35;1.60;;;;;;;20.25;37.18;100955.75;10432917;28;20044;-63
2024/03/17 11:02:36;;;;;;;5.20;1.70;;;;;;;19.80;37.30;100945.84;10429589;28;20076;-62
2024/03/17 11:07:38;;;;;;;3.33;1.55;;;;;;;19.67;37.94;100942.38;10429926;28;20041;-63
2024/03/17 11:12:56;;;;;;;2.40;1.20;;;;;;;19.63;37.66;100947.47;10431308;28;20268;-63
2024/03/17 11:18:08;;;;;;;;;;;;;;;19.91;38.72;100952.50;10424750;28;20041;-63
2024/03/17 11:23:09;;;;;;;2.53;1.17;;;;;;;19.47;38.06;100951.56;10429115;28;19924;-62
2024/03/17 11:28:10;;;;;;;5.70;1.17;;;;;;;19.66;37.17;100938.81;10426396;28;20033;-63
2024/03/17 11:33:29;;;;;;;4.90;1.45;;;;;;;19.95;36.89;100941.97;10424023;28;20033;-62
2024/03/17 11:38:51;;;;;;;3.22;1.40;;;;;;;21.81;33.89;100943.47;10413145;28;20047;-62
2024/03/17 11:44:18;;;;;;;2.85;1.15;;;;;;;22.25;33.18;100933.84;10424401;28;20038;-62
2024/03/17 11:49:26;;;;;;;2.67;1.20;;;;;;;22.05;33.53;100941.56;10416956;28;20095;-63
2024/03/17 11:54:29;;;;;;;1.98;1.17;;;;;;;21.77;33.53;100941.19;10380526;28;20346;-62
2024/03/17 11:59:30;;;;;;;4.70;1.25;;;;;;;21.09;34.33;100931.47;10380023;28;20057;-62
2024/03/17 12:04:30;;;;;;;2.88;1.20;;;;;;;20.18;35.41;100946.78;10380936;28;20064;-62
2024/03/17 12:09:32;;;;;;;2.08;1.17;;;;;;;19.75;35.73;100932.06;10382751;28;20042;-62
2024/03/17 12:14:33;;;;;;;5.72;1.40;;;;;;;19.58;35.60;100929.00;10376319;28;20053;-61
2024/03/17 12:19:34;;;;;;;5.90;1.85;;;;;;;19.07;36.39;100920.97;10381707;28;20045;-61
2024/03/17 12:24:36;;;;;;;2.00;1.13;;;;;;;19.03;36.19;100915.09;10380948;28;20060;-61
2024/03/17 12:29:42;;;;;;;3.70;2.05;;;;;;;18.82;36.59;100914.38;10382334;28;20049;-63
2024/03/17 12:34:44;;;;;;;4.72;1.90;;;;;;;18.68;36.46;100910.03;10382683;28;20057;-62
2024/03/17 12:39:45;;;;;;;2.13;1.65;;;;;;;19.46;36.00;100903.50;10381259;28;20052;-62
2024/03/17 12:45:00;;;;;;;7.35;1.65;;;;;;;19.50;36.06;100893.81;10377518;28;20064;-61
2024/03/17 12:50:05;;;;;;;3.35;1.50;;;;;;;19.51;36.01;100889.19;10381792;28;20057;-62
2024/03/17 13:00:33;;;;;;;3.40;1.23;;;;;;;20.36;35.12;100872.25;10396509;28;20072;-62
2024/03/17 13:05:37;;;;;;;2.75;1.80;;;;;;;20.89;34.71;100860.69;10420287;28;20109;-61
2024/03/17 13:10:37;;;;;;;4.60;1.83;;;;;;;20.94;34.68;100863.53;10422448;28;20079;-62
2024/03/17 13:15:38;;;;;;;2.38;1.38;;;;;;;20.77;35.04;100863.38;10421421;28;20091;-63
2024/03/17 13:20:38;;;;;;;3.05;1.42;;;;;;;21.35;33.98;100847.38;10420387;28;20092;-63
2024/03/17 13:25:39;;;;;;;3.08;1.58;;;;;;;22.74;32.65;100832.94;10423061;28;20045;-63
2024/03/17 13:30:41;;;;;;;4.05;2.15;;;;;;;24.49;30.23;100802.72;10418445;28;20049;-60
2024/03/17 13:35:42;;;;;;;5.63;2.20;;;;;;;24.62;29.91;100796.81;10397286;28;20045;-63
2024/03/17 13:40:42;;;;;;;3.63;2.40;;;;;;;23.91;30.52;100805.00;10428545;28;20049;-63
2024/03/17 13:45:43;;;;;;;3.88;1.67;;;;;;;22.92;31.72;100800.91;10425658;28;20053;-61
2024/03/17 13:50:44;;;;;;;3.15;2.00;;;;;;;23.19;31.36;100792.91;10427691;28;20049;-60
2024/03/17 13:55:46;;;;;;;3.00;1.70;;;;;;;22.63;32.30;100787.25;10423390;28;20084;-62
2024/03/17 14:00:46;;;;;;;3.50;2.20;;;;;;;22.69;31.60;100780.78;10429002;28;20025;-63
2024/03/17 14:05:47;;;;;;;2.83;1.92;;;;;;;22.56;32.04;100770.13;10424016;28;20069;-62
2024/03/17 14:10:47;;;;;;;5.70;2.40;;;;;;;22.15;32.31;100763.81;10407416;28;20643;-63
2024/03/17 14:15:48;;;;;;;2.85;1.48;;;;;;;21.87;32.49;100756.38;10384515;28;20046;-63
2024/03/17 14:20:48;;;;;;;3.33;2.25;;;;;;;21.16;33.42;100762.69;10380820;28;20054;-63
2024/03/17 14:25:49;;;;;;;6.35;1.90;;;;;;;20.48;34.74;100766.66;10383377;28;20045;-63
2024/03/17 14:30:49;;;;;;;5.70;1.75;;;;;;;20.16;34.92;100766.00;10368321;28;20084;-62
2024/03/17 14:35:57;;;;;;;5.32;2.22;;;;;;;19.95;35.46;100761.88;10381536;28;20045;-62
2024/03/17 14:40:57;;;;;;;6.57;2.85;;;;;;;19.96;35.45;100753.47;10383806;28;20045;-62
2024/03/17 14:45:58;;;;;;;6.82;2.08;;;;;;;20.04;35.82;100748.75;10383460;28;20401;-62
2024/03/17 14:50:58;;;;;;;6.50;2.72;;;;;;;20.03;36.16;100744.34;10380207;28;20085;-62
2024/03/17 14:55:59;;;;;;;3.35;1.77;;;;;;;20.12;35.97;100738.34;10384818;28;20389;-62
2024/03/17 15:00:59;;;;;;;4.35;2.20;;;;;;;20.04;35.96;100733.19;10385693;28;20045;-62
2024/03/17 15:06:00;;;;;;;3.95;1.80;;;;;;;19.71;36.72;100737.16;10365662;28;20049;-63
2024/03/17 15:11:00;;;;;;;4.47;1.90;;;;;;;19.55;36.62;100734.97;10366469;28;20050;-63
2024/03/17 15:16:05;;;;;;;5.88;2.50;;;;;;;19.27;37.04;100722.66;10383969;28;20500;-63
2024/03/17 15:21:05;;;;;;;6.35;2.15;;;;;;;19.11;37.45;100725.97;10395489;28;20065;-61
2024/03/17 15:26:08;;;;;;;5.10;2.08;;;;;;;18.99;37.56;100723.97;10425384;28;20065;-62
2024/03/17 15:31:10;;;;;;;7.53;2.35;;;;;;;18.91;37.66;100717.97;10423182;28;20047;-62
2024/03/17 15:36:10;;;;;;;4.05;2.17;;;;;;;18.85;37.53;100724.31;10424359;28;20040;-63
2024/03/17 15:41:11;;;;;;;3.53;1.98;;;;;;;18.85;37.87;100714.25;10424689;28;20040;-62
2024/03/17 15:46:18;;;;;;;5.57;1.58;;;;;;;18.97;37.88;100707.00;10425672;28;20079;-63
2024/03/17 15:51:20;;;;;;;3.83;1.85;;;;;;;18.97;37.73;100717.91;10421387;28;20052;-62
2024/03/17 15:56:21;;;;;;;3.25;1.77;;;;;;;18.88;38.25;100716.53;10420894;28;20041;-62
2024/03/17 16:01:22;;;;;;;2.50;1.58;;;;;;;18.73;38.76;100703.19;10422445;28;20049;-60
2024/03/17 16:06:24;;;;;;;4.32;2.10;;;;;;;18.57;38.97;100706.47;10421529;28;20040;-62
2024/03/17 16:11:28;;;;;;;6.55;1.83;;;;;;;18.57;38.98;100706.47;10423828;28;20068;-61
2024/03/17 16:16:31;;;;;;;5.93;2.03;;;;;;;18.79;39.10;100688.72;10408064;28;20097;-63
2024/03/17 16:21:31;;;;;;;3.35;2.38;;;;;;;19.18;38.43;100692.16;10429629;28;20060;-62
2024/03/17 16:26:36;;;;;;;3.22;1.90;;;;;;;19.43;37.81;100694.00;10428345;28;20056;-62
2024/03/17 16:31:38;;;;;;;1.85;1.55;;;;;;;19.64;37.86;100692.72;10401461;28;20045;-63
2024/03/17 16:36:40;;;;;;;6.90;1.52;;;;;;;19.68;37.69;100669.38;10377235;28;20127;-63
2024/03/17 16:41:40;;;;;;;2.65;1.70;;;;;;;19.75;37.92;100674.81;10372918;28;20049;-64
2024/03/17 16:47:32;;;;;;;2.33;1.33;;;;;;;19.64;38.10;100676.34;10370755;28;20033;-62
2024/03/17 16:52:33;;;;;;;3.28;1.05;;;;;;;19.29;38.15;100674.22;10211976;28;20047;-63
2024/03/17 16:57:34;;;;;;;4.15;1.88;;;;;;;18.89;39.01;100690.13;10344118;28;20052;-63
2024/03/17 17:02:35;;;;;;;4.97;1.40;;;;;;;18.49;39.24;100691.22;10372512;28;20104;-64
2024/03/17 17:07:36;;;;;;;2.83;1.70;;;;;;;18.09;39.93;100691.47;10345938;28;20045;-63
2024/03/17 17:12:36;;;;;;;3.35;1.65;;;;;;;17.68;40.70;100672.81;10350715;28;20050;-63
2024/03/17 17:17:37;;;;;;;5.50;2.10;;;;;;;17.23;41.30;100679.81;10370764;28;20136;-63
2024/03/17 17:22:38;;;;;;;5.07;2.15;;;;;;;16.80;42.02;100684.81;10373868;28;20068;-64
2024/03/17 17:27:38;;;;;;;5.95;2.08;;;;;;;16.49;42.60;100682.72;10368380;28;20441;-63
2024/03/17 17:32:39;;;;;;;3.78;1.88;;;;;;;16.18;42.99;100676.81;10361371;28;20045;-62
2024/03/17 17:37:40;;;;;;;3.50;2.45;;;;;;;15.91;43.31;100686.75;10370720;28;20582;-58
2024/03/17 17:42:40;;;;;;;5.25;2.20;;;;;;;15.58;44.11;100681.13;10376159;28;20467;-58
2024/03/17 17:47:41;;;;;;;9.65;3.53;;;;;;;15.33;44.25;100672.69;10368234;28;20053;-60
2024/03/17 17:52:41;;;;;;;5.03;3.70;;;;;;;15.11;45.06;100666.50;10372572;28;20049;-59
2024/03/17 17:57:42;;;;;;;5.50;3.35;;;;;;;14.94;45.58;100664.09;10371184;28;20053;-59
2024/03/17 18:02:42;;;;;;;6.45;2.83;;;;;;;14.80;45.92;100670.44;10373281;28;20057;-58
2024/03/17 18:07:43;;;;;;;5.97;3.17;;;;;;;14.65;46.42;100667.78;10380400;28;20099;-58
2024/03/17 18:12:43;;;;;;;8.48;2.95;;;;;;;14.51;46.70;100685.75;10375532;28;20813;-59
2024/03/17 18:17:44;;;;;;;7.93;3.05;;;;;;;14.41;47.07;100682.53;10383852;28;20083;-59
2024/03/17 18:22:45;;;;;;;5.85;3.58;;;;;;;14.24;47.28;100687.38;10369621;28;20046;-59
2024/03/17 18:27:46;;;;;;;10.55;3.97;;;;;;;14.04;47.42;100690.69;10391536;28;20045;-60
2024/03/17 18:32:46;;;;;;;8.45;3.42;;;;;;;14.04;47.82;100682.56;10363421;28;20060;-59
2024/03/17 18:37:47;;;;;;;6.90;3.05;;;;;;;13.97;48.08;100697.88;10381408;28;20823;-68
2024/03/17 18:42:49;;;;;;;7.68;4.45;;;;;;;13.91;48.41;100700.50;10374827;28;20045;-67
2024/03/17 18:47:52;;;;;;;10.07;5.55;;;;;;;13.87;48.90;100692.75;10368382;28;20065;-67
2024/03/17 18:52:53;;;;;;;12.52;6.82;;;;;;;13.78;49.93;100699.28;10373215;28;20095;-66
2024/03/17 18:57:53;;;;;;;13.68;6.55;;;;;;;13.70;50.51;100699.41;10376071;28;20498;-66
2024/03/17 19:02:54;;;;;;;19.75;8.35;;;;;;;13.67;50.97;100695.22;10376912;28;20424;-67
2024/03/17 19:07:55;;;;;;;10.85;6.32;;;;;;;13.63;51.15;100693.91;10379477;28;20049;-66
2024/03/17 19:12:56;;;;;;;9.18;4.45;;;;;;;13.40;51.73;100699.41;10359594;28;20123;-67
2024/03/17 19:17:57;;;;;;;8.48;4.97;;;;;;;13.37;52.10;100697.09;10376199;28;20060;-67
2024/03/17 19:22:57;;;;;;;9.27;5.88;;;;;;;13.41;52.00;100676.78;10379481;28;20049;-67
2024/03/17 19:27:58;;;;;;;13.68;5.15;;;;;;;13.35;52.39;100671.28;10369717;28;20464;-67
2024/03/17 19:32:58;;;;;;;10.13;4.68;;;;;;;13.21;52.66;100672.94;10377194;28;20045;-67
2024/03/17 19:37:59;;;;;;;12.25;5.55;;;;;;;13.01;53.27;100668.09;10371440;28;20416;-67
2024/03/17 19:42:59;;;;;;;9.77;6.03;;;;;;;12.99;53.13;100666.56;10371449;28;20053;-64
2024/03/17 19:48:00;;;;;;;12.35;5.68;;;;;;;12.96;53.31;100659.69;10375893;28;20055;-65
2024/03/17 19:53:01;;;;;;;11.07;4.65;;;;;;;12.85;53.54;100662.84;10369882;28;20041;-66
2024/03/17 19:58:03;;;;;;;12.85;6.30;;;;;;;12.65;54.33;100662.50;10369960;28;20056;-65
2024/03/17 20:03:03;;;;;;;37.13;19.83;;;;;;;12.53;54.79;100655.88;10387823;28;20394;-66
2024/03/17 20:08:05;;;;;;;25.55;14.60;;;;;;;12.45;55.13;100651.38;10385257;28;20058;-64
2024/03/17 20:13:06;;;;;;;23.05;9.50;;;;;;;12.28;55.69;100656.91;10384168;28;20050;-64
2024/03/17 20:18:07;;;;;;;15.32;6.47;;;;;;;12.25;55.41;100657.25;10400100;28;20073;-62
2024/03/17 20:23:09;;;;;;;10.02;5.40;;;;;;;12.25;55.68;100661.81;10405800;28;20105;-64
2024/03/17 20:28:11;;;;;;;14.02;4.55;;;;;;;12.25;55.66;100651.03;10406126;28;20064;-62
2024/03/17 20:33:12;;;;;;;9.85;5.70;;;;;;;12.13;56.03;100636.31;10395887;28;20084;-63
2024/03/17 20:38:12;;;;;;;11.43;5.20;;;;;;;11.88;56.91;100641.81;10409459;28;20286;-63
2024/03/17 20:43:15;;;;;;;10.82;5.63;;;;;;;11.66;57.82;100652.34;10394527;28;20068;-65
2024/03/17 20:48:15;;;;;;;9.32;5.25;;;;;;;11.64;57.27;100643.63;10411583;28;20049;-63
2024/03/17 20:53:16;;;;;;;11.38;5.53;;;;;;;11.54;57.93;100645.69;10399698;28;20447;-58
2024/03/17 20:58:16;;;;;;;21.38;8.48;;;;;;;11.42;57.61;100647.09;10375415;28;20447;-57
2024/03/17 21:03:17;;;;;;;11.32;6.05;;;;;;;11.34;58.01;100644.44;10375147;28;20087;-57
2024/03/17 21:08:18;;;;;;;12.48;6.53;;;;;;;11.33;57.93;100648.94;10357661;28;20413;-57
2024/03/17 21:13:19;;;;;;;16.48;8.60;;;;;;;11.26;58.35;100646.13;10368150;28;20381;-61
2024/03/17 21:18:22;;;;;;;12.05;5.60;;;;;;;11.15;58.54;100638.41;10373072;28;20573;-60
2024/03/17 21:23:23;;;;;;;11.13;5.85;;;;;;;10.98;58.93;100632.25;10371987;28;20052;-59
2024/03/17 21:28:24;;;;;;;19.70;6.75;;;;;;;10.91;58.71;100617.81;10362602;28;20665;-60
2024/03/17 21:33:24;;;;;;;33.90;15.00;;;;;;;10.80;59.31;100608.25;10371040;28;20049;-61
2024/03/17 21:38:25;;;;;;;44.05;18.52;;;;;;;10.76;59.32;100598.00;10364573;28;20115;-61
2024/03/17 21:43:25;;;;;;;18.35;7.78;;;;;;;10.71;59.21;100598.53;10369394;28;20061;-61
2024/03/17 21:48:26;;;;;;;36.33;14.45;;;;;;;10.62;59.60;100597.69;10365880;28;20050;-59
2024/03/17 21:53:26;;;;;;;17.42;7.72;;;;;;;10.56;59.70;100595.66;10372562;28;20452;-60
2024/03/17 21:58:27;;;;;;;15.85;7.97;;;;;;;10.44;60.03;100592.50;10378567;28;20084;-61
2024/03/17 22:03:29;;;;;;;16.80;8.30;;;;;;;10.37;60.04;100591.50;10379235;28;20128;-61
2024/03/17 22:08:29;;;;;;;15.25;6.43;;;;;;;10.37;60.16;100582.59;10380571;28;20046;-62
2024/03/17 22:13:31;;;;;;;7.60;4.47;;;;;;;10.40;60.09;100579.56;10381132;28;20488;-60
2024/03/17 22:18:33;;;;;;;11.30;5.60;;;;;;;10.36;60.30;100580.91;10373895;28;20057;-61
2024/03/17 22:23:33;;;;;;;9.88;5.32;;;;;;;10.27;60.64;100574.69;10375049;28;20053;-59
2024/03/17 22:28:34;;;;;;;9.25;4.47;;;;;;;10.22;60.52;100572.50;10374767;28;20048;-58
2024/03/17 22:33:35;;;;;;;8.73;4.30;;;;;;;10.23;60.69;100567.94;10376328;28;20201;-58
2024/03/17 22:38:39;;;;;;;8.93;3.97;;;;;;;10.24;60.89;100562.41;10378268;28;20065;-58
2024/03/17 22:43:41;;;;;;;13.68;3.60;;;;;;;10.26;60.86;100573.00;10374728;28;20444;-58
2024/03/17 22:48:42;;;;;;;7.53;4.50;;;;;;;10.25;60.97;100569.47;10378120;28;20065;-59
2024/03/17 22:53:44;;;;;;;7.18;4.38;;;;;;;10.33;60.61;100563.28;10378719;28;20634;-58
2024/03/17 22:58:46;;;;;;;8.10;3.70;;;;;;;10.34;60.85;100564.13;10375874;28;20437;-58
2024/03/17 23:03:46;;;;;;;6.32;3.65;;;;;;;10.46;60.59;100565.44;10373356;28;20041;-57
2024/03/17 23:08:47;;;;;;;8.40;3.60;;;;;;;10.45;61.08;100561.94;10374981;28;20049;-57
2024/03/17 23:13:48;;;;;;;8.05;3.47;;;;;;;10.35;60.96;100560.41;10375836;28;20058;-58
2024/03/17 23:18:49;;;;;;;6.13;3.78;;;;;;;10.49;61.05;100555.22;10380179;28;20110;-57